Terminal Aerodrome Forecast
Issued by NWS Pueblo, CO

Home | Current Version | Previous Version | Text Only | Print | Product List | Glossary On
Versions: 1 2 3 4 5 6 7 8 9 10 11 12 13
000
FTUS45 KPUB 282336
TAFALS
TAF
KALS 282336Z 2900/2924 10006KT P6SM FEW080 SCT150
     FM290400 33008KT P6SM SCT100 BKN150
     FM290700 VRB05KT P6SM SCT120 BKN200
     FM291800 10007KT P6SM SCT100 SCT150
     FM292000 13010KT P6SM VCTS SCT080CB BKN150=

USA.gov is the U.S. government's official web portal to all federal, state and local government web resources and services.